Terminal Aerodrome Forecast
Issued by NWS King Salmon, AK

Home | Current Version | Previous Version | Text Only | Print | Product List | Glossary On
Versions: 1 2 3 4 5 6 7 8 9 10 11 12 13 14 15 16 17 18 19 20 21 22 23 24 25 26 27 28 29 30 31 32 33 34 35 36 37 38
724
FTAK31 PANC 181125
TAFAKN
TAF
PAKN 181125Z 1812/1912 20008KT 3SM -SHRA BR OVC004
     FM181800 27010KT P6SM -SHRA FEW004 OVC015
     FM190000 26010KT P6SM SCT015 OVC035
     FM190800 22006KT P6SM OVC015=

USA.gov is the U.S. government's official web portal to all federal, state and local government web resources and services.